Time;durP1;ratioP1;P1;durP2;ratioP2;P2;SDS_P1;SDS_P2;PMS_P1;PMS_P2;Temp;Humidity;BMP_temperature;BMP_pressure;BME280_temperature;BME280_humidity;BME280_pressure;Samples;Min_cycle;Max_cycle;Signal;HPM_P1;HPM_P2
2021/11/18 00:00:12;;;;;;;103.50;61.15;;;-2.00;86.50;;;;;;5133494;27;20488;-73
2021/11/18 00:02:39;;;;;;;104.82;60.97;;;-2.10;86.80;;;;;;5125650;27;20031;-72
2021/11/18 00:05:06;;;;;;;98.07;59.28;;;-2.10;87.00;;;;;;5109265;27;20026;-74
2021/11/18 00:07:33;;;;;;;83.90;53.35;;;-2.10;86.90;;;;;;5100668;28;20051;-73
2021/11/18 00:09:58;;;;;;;81.10;51.78;;;-2.10;87.20;;;;;;5112658;27;20051;-73
2021/11/18 00:12:25;;;;;;;74.47;45.88;;;-2.20;87.10;;;;;;5123720;27;20024;-73
2021/11/18 00:14:51;;;;;;;10.20;9.02;;;-2.30;87.50;;;;;;5126151;27;20080;-73
2021/11/18 00:17:17;;;;;;;75.43;48.97;;;-2.40;87.10;;;;;;5118753;27;20421;-73
2021/11/18 00:19:43;;;;;;;69.03;44.97;;;-2.50;88.50;;;;;;5102814;28;20392;-72
2021/11/18 00:22:09;;;;;;;71.00;43.67;;;-2.60;89.00;;;;;;5123772;27;20027;-72
2021/11/18 00:24:35;;;;;;;73.70;44.85;;;-2.60;89.40;;;;;;5130518;27;20027;-70
2021/11/18 00:27:01;;;;;;;72.80;47.55;;;-2.60;89.30;;;;;;5111492;28;20034;-72
2021/11/18 00:29:27;;;;;;;77.80;50.33;;;-2.60;89.10;;;;;;5122286;27;20504;-73
2021/11/18 00:31:53;;;;;;;81.13;50.47;;;-2.60;89.10;;;;;;5127842;27;20032;-74
2021/11/18 00:34:18;;;;;;;94.85;58.35;;;-2.60;89.40;;;;;;5119149;27;20023;-75
2021/11/18 00:36:45;;;;;;;100.28;66.88;;;-2.70;89.10;;;;;;5132529;27;20034;-73
2021/11/18 00:39:11;;;;;;;105.03;67.75;;;-2.70;88.90;;;;;;5125102;27;20528;-75
2021/11/18 00:41:36;;;;;;;105.15;67.65;;;-2.70;88.80;;;;;;5128154;27;20111;-76
2021/11/18 00:44:05;;;;;;;111.90;70.40;;;-2.80;88.80;;;;;;5110056;27;20083;-72
2021/11/18 00:46:33;;;;;;;109.93;68.53;;;-2.80;89.30;;;;;;5109114;28;20092;-73
2021/11/18 00:49:00;;;;;;;11.05;8.98;;;-2.80;89.20;;;;;;5097144;28;20035;-72
2021/11/18 00:51:25;;;;;;;72.80;48.47;;;-2.80;88.40;;;;;;5125088;27;20030;-73
2021/11/18 00:53:57;;;;;;;81.35;49.80;;;-2.90;89.40;;;;;;5099633;28;20028;-72
2021/11/18 00:56:24;;;;;;;74.57;48.30;;;-3.00;89.60;;;;;;5098545;28;20182;-74
2021/11/18 00:58:52;;;;;;;77.75;48.72;;;-3.10;90.00;;;;;;5108765;27;20068;-73
2021/11/18 01:01:20;;;;;;;14.55;9.15;;;-3.10;90.10;;;;;;5128188;27;20028;-73
2021/11/18 01:03:46;;;;;;;103.55;63.15;;;-3.10;89.00;;;;;;5119552;27;20610;-74
2021/11/18 01:06:13;;;;;;;85.60;52.80;;;-3.20;89.40;;;;;;5129375;27;20023;-73
2021/11/18 01:08:39;;;;;;;75.70;50.15;;;-3.20;90.10;;;;;;5131127;27;20125;-73
2021/11/18 01:11:30;;;;;;;78.88;49.97;;;-3.20;90.10;;;;;;5109697;27;20110;-73
2021/11/18 01:13:56;;;;;;;84.13;52.13;;;-3.30;89.90;;;;;;5123290;27;20047;-73
2021/11/18 01:16:28;;;;;;;73.47;48.20;;;-3.30;89.90;;;;;;5124440;27;20033;-74
2021/11/18 01:18:54;;;;;;;91.35;55.97;;;-3.40;90.30;;;;;;5099503;28;20020;-72
2021/11/18 01:21:21;;;;;;;78.00;47.85;;;-3.30;90.10;;;;;;5126924;27;20051;-73
2021/11/18 01:23:47;;;;;;;75.93;48.75;;;-3.30;90.20;;;;;;5128549;27;20114;-72
2021/11/18 01:26:16;;;;;;;86.50;54.58;;;-3.30;90.20;;;;;;5124520;27;20055;-73
2021/11/18 01:28:42;;;;;;;14.73;7.07;;;-3.30;90.10;;;;;;5116904;27;20038;-72
2021/11/18 01:31:09;;;;;;;77.05;46.30;;;-3.30;89.60;;;;;;5106780;28;20399;-73
2021/11/18 01:33:35;;;;;;;86.43;54.72;;;-3.30;90.30;;;;;;5097746;28;20465;-73
2021/11/18 01:36:02;;;;;;;30.77;11.88;;;-3.30;90.10;;;;;;5116000;28;20027;-73
2021/11/18 01:38:31;;;;;;;114.13;68.68;;;-3.30;89.10;;;;;;5116287;27;20462;-73
2021/11/18 01:40:58;;;;;;;90.78;55.15;;;-3.30;88.60;;;;;;5127177;27;20449;-72
2021/11/18 01:43:27;;;;;;;93.32;56.67;;;-3.30;88.50;;;;;;5105276;27;20533;-72
2021/11/18 01:45:54;;;;;;;100.68;61.08;;;-3.30;88.40;;;;;;5122469;27;20033;-72
2021/11/18 01:48:20;;;;;;;109.20;65.22;;;-3.30;88.20;;;;;;5115772;27;20085;-72
2021/11/18 01:50:48;;;;;;;117.32;67.07;;;-3.30;88.50;;;;;;5128042;27;20144;-72
2021/11/18 01:53:23;;;;;;;101.10;61.65;;;-3.30;87.60;;;;;;5101015;27;20023;-73
2021/11/18 01:55:50;;;;;;;113.18;66.95;;;-3.30;87.60;;;;;;5110664;27;20551;-73
2021/11/18 01:58:17;;;;;;;103.50;60.17;;;-3.30;86.90;;;;;;5126363;27;20110;-74
2021/11/18 02:00:48;;;;;;;69.82;44.47;;;-3.30;87.10;;;;;;5104776;28;20024;-73
2021/11/18 02:03:14;;;;;;;78.68;48.72;;;-3.30;88.20;;;;;;5105431;28;20107;-73
2021/11/18 02:05:54;;;;;;;78.97;48.13;;;-3.20;88.70;;;;;;5124818;27;20033;-72
2021/11/18 02:08:23;;;;;;;82.82;49.33;;;-3.20;89.30;;;;;;5097803;27;20123;-71
2021/11/18 02:10:53;;;;;;;82.72;49.33;;;-3.20;89.40;;;;;;5123500;27;20027;-74
2021/11/18 02:13:21;;;;;;;88.93;52.67;;;-3.10;90.00;;;;;;5113148;27;20385;-72
2021/11/18 02:15:53;;;;;;;94.10;55.35;;;-3.00;90.00;;;;;;5109398;27;20034;-73
2021/11/18 02:18:23;;;;;;;95.93;57.22;;;-3.00;89.40;;;;;;5123908;27;20491;-73
2021/11/18 02:20:56;;;;;;;101.82;59.90;;;-3.00;89.10;;;;;;5096883;27;20035;-74
2021/11/18 02:23:24;;;;;;;131.80;78.20;;;-3.10;89.20;;;;;;5122860;27;20464;-71
2021/11/18 02:25:52;;;;;;;112.40;66.65;;;-3.20;88.00;;;;;;5119909;27;20077;-74
2021/11/18 02:28:20;;;;;;;117.30;71.07;;;-3.30;87.80;;;;;;5119792;27;20079;-74
2021/11/18 02:30:48;;;;;;;129.63;76.13;;;-3.30;87.20;;;;;;5127878;27;20050;-74
2021/11/18 02:33:17;;;;;;;123.53;72.28;;;-3.40;86.70;;;;;;5125770;27;20453;-73
2021/11/18 02:35:44;;;;;;;92.45;55.40;;;-3.50;86.50;;;;;;5108170;27;20035;-74
2021/11/18 02:38:11;;;;;;;104.47;61.92;;;-3.50;87.10;;;;;;5109550;28;20353;-73
2021/11/18 02:40:37;;;;;;;103.63;61.30;;;-3.50;87.80;;;;;;5124884;27;20042;-72
2021/11/18 02:43:05;;;;;;;87.32;52.22;;;-3.50;88.40;;;;;;5124796;27;20162;-73
2021/11/18 02:45:34;;;;;;;79.28;49.15;;;-3.40;88.70;;;;;;5115512;27;20020;-73
2021/11/18 02:48:00;;;;;;;74.18;45.92;;;-3.40;88.90;;;;;;5130831;27;20111;-73
2021/11/18 02:50:33;;;;;;;73.93;45.08;;;-3.40;88.90;;;;;;5111144;28;20045;-73
2021/11/18 02:52:59;;;;;;;67.18;42.90;;;-3.30;89.00;;;;;;5122216;27;20575;-73
2021/11/18 02:55:31;;;;;;;88.93;52.42;;;-3.30;88.70;;;;;;5118640;27;20055;-73
2021/11/18 02:57:57;;;;;;;83.80;50.13;;;-3.30;88.50;;;;;;5100935;28;20027;-73
2021/11/18 03:00:27;;;;;;;83.43;50.88;;;-3.30;88.10;;;;;;5114191;28;20358;-73
2021/11/18 03:02:53;;;;;;;90.22;59.60;;;-3.40;88.00;;;;;;5097998;28;20055;-73
2021/11/18 03:05:19;;;;;;;113.30;73.68;;;-3.40;88.20;;;;;;5121093;28;20030;-73
2021/11/18 03:07:48;;;;;;;99.45;57.55;;;-3.40;88.40;;;;;;5098352;28;20051;-74
2021/11/18 03:10:16;;;;;;;82.03;50.25;;;-3.40;88.70;;;;;;5096184;28;20362;-75
2021/11/18 03:12:42;;;;;;;110.32;63.53;;;-3.40;88.40;;;;;;5095226;28;20110;-75
2021/11/18 03:15:11;;;;;;;169.60;109.18;;;-3.30;87.90;;;;;;5125072;27;20026;-74
2021/11/18 03:17:37;;;;;;;271.02;176.05;;;-3.30;87.60;;;;;;5107184;28;20060;-74
2021/11/18 03:20:09;;;;;;;337.55;218.95;;;-3.30;87.20;;;;;;5104575;28;20384;-74
2021/11/18 03:22:35;;;;;;;430.95;291.52;;;-3.30;87.10;;;;;;5110783;27;20461;-74
2021/11/18 03:25:01;;;;;;;305.60;194.65;;;-3.40;87.10;;;;;;5123609;27;20124;-74
2021/11/18 03:27:26;;;;;;;345.63;211.98;;;-3.40;87.20;;;;;;5122102;28;20465;-74
2021/11/18 03:29:52;;;;;;;316.77;203.25;;;-3.50;87.00;;;;;;5117108;28;20081;-74
2021/11/18 03:32:17;;;;;;;17.20;11.55;;;-3.50;87.40;;;;;;5123592;28;20020;-74
2021/11/18 03:34:43;;;;;;;108.22;68.05;;;-3.50;87.10;;;;;;5121701;28;20027;-74
2021/11/18 03:37:09;;;;;;;80.28;48.78;;;-3.60;87.60;;;;;;5106484;28;20035;-74
2021/11/18 03:39:35;;;;;;;104.75;61.45;;;-3.60;88.10;;;;;;5122057;28;20042;-74
2021/11/18 03:42:04;;;;;;;75.60;48.58;;;-3.50;87.90;;;;;;5121991;28;20501;-74
2021/11/18 03:44:30;;;;;;;108.07;62.92;;;-3.50;87.50;;;;;;5125385;28;20015;-74
2021/11/18 03:47:00;;;;;;;178.75;101.47;;;-3.50;87.30;;;;;;5131991;28;20428;-74
2021/11/18 03:49:26;;;;;;;93.63;56.92;;;-3.50;85.20;;;;;;5114909;28;20061;-75
2021/11/18 03:51:54;;;;;;;93.68;56.10;;;-3.60;85.20;;;;;;5106622;28;21512;-74
2021/11/18 03:54:22;;;;;;;84.22;50.50;;;-3.60;86.20;;;;;;5120316;28;20026;-74
2021/11/18 03:56:49;;;;;;;108.82;64.40;;;-3.60;86.50;;;;;;5128381;28;20398;-74
2021/11/18 03:59:19;;;;;;;82.32;51.25;;;-3.60;86.50;;;;;;5124735;28;20465;-73
2021/11/18 04:01:46;;;;;;;14.15;9.70;;;-3.60;86.90;;;;;;5113236;28;20072;-73
2021/11/18 04:04:15;;;;;;;74.18;48.85;;;-3.70;87.10;;;;;;5113478;28;20036;-74
2021/11/18 04:06:42;;;;;;;87.40;53.55;;;-3.80;87.90;;;;;;5113534;28;20027;-74
2021/11/18 04:09:08;;;;;;;72.90;45.17;;;-3.80;88.20;;;;;;5113271;27;20140;-73
2021/11/18 04:11:35;;;;;;;91.68;53.03;;;-3.80;88.20;;;;;;5123824;28;20031;-73
2021/11/18 04:14:02;;;;;;;71.78;42.47;;;-3.80;88.10;;;;;;5103726;28;20033;-74
2021/11/18 04:16:28;;;;;;;71.60;42.08;;;-3.70;88.60;;;;;;5114530;28;20019;-74
2021/11/18 04:18:54;;;;;;;72.30;44.70;;;-3.70;88.80;;;;;;5103172;28;20534;-74
2021/11/18 04:21:20;;;;;;;89.65;52.17;;;-3.70;88.60;;;;;;5121316;28;20496;-74
2021/11/18 04:23:46;;;;;;;62.15;40.65;;;-3.70;87.70;;;;;;5131850;27;20031;-74
2021/11/18 04:26:12;;;;;;;75.13;44.70;;;-3.70;87.80;;;;;;5100251;28;20034;-74
2021/11/18 04:28:39;;;;;;;75.53;48.53;;;-3.70;88.60;;;;;;5123565;27;20034;-74
2021/11/18 04:31:09;;;;;;;83.35;54.90;;;-3.70;88.90;;;;;;5112548;28;20028;-75
2021/11/18 04:33:36;;;;;;;78.07;49.58;;;-3.60;89.30;;;;;;5133184;27;20034;-75
2021/11/18 04:36:05;;;;;;;81.18;47.33;;;-3.60;89.10;;;;;;5106573;28;20027;-75
2021/11/18 04:38:32;;;;;;;78.70;49.67;;;-3.60;88.70;;;;;;5104078;27;20325;-75
2021/11/18 04:40:59;;;;;;;82.03;50.40;;;-3.60;88.20;;;;;;5128721;27;20165;-74
2021/11/18 04:43:25;;;;;;;80.82;49.10;;;-3.70;87.90;;;;;;5106309;27;20055;-74
2021/11/18 04:45:51;;;;;;;71.15;45.20;;;-3.70;88.10;;;;;;5105932;28;20054;-74
2021/11/18 04:48:17;;;;;;;67.22;43.85;;;-3.80;88.70;;;;;;5126980;27;20465;-74
2021/11/18 04:50:43;;;;;;;80.75;46.65;;;-3.80;89.00;;;;;;5120498;27;20132;-74
2021/11/18 04:53:10;;;;;;;78.57;47.00;;;-3.70;88.90;;;;;;5108612;27;20110;-73
2021/11/18 04:55:37;;;;;;;76.38;48.05;;;-3.70;88.70;;;;;;5120958;27;20023;-78
2021/11/18 04:58:04;;;;;;;65.57;41.58;;;-3.60;88.50;;;;;;5123683;27;20376;-74
2021/11/18 05:00:40;;;;;;;77.40;48.53;;;-3.60;88.40;;;;;;5100148;27;20042;-75
2021/11/18 05:03:06;;;;;;;93.88;55.15;;;-3.60;88.50;;;;;;5099449;27;20358;-74
2021/11/18 05:05:33;;;;;;;101.75;62.45;;;-3.60;88.00;;;;;;5103049;27;20533;-74
2021/11/18 05:07:59;;;;;;;82.13;51.55;;;-3.60;87.20;;;;;;5117014;27;20031;-74
2021/11/18 05:10:26;;;;;;;112.32;67.55;;;-3.70;87.00;;;;;;5104846;27;20046;-74
2021/11/18 05:12:52;;;;;;;17.80;10.65;;;-3.60;86.90;;;;;;5105747;28;20049;-73
2021/11/18 05:15:19;;;;;;;85.55;52.55;;;-3.60;86.90;;;;;;5100511;27;20493;-73
2021/11/18 05:17:46;;;;;;;10.10;9.07;;;-3.60;88.60;;;;;;5127782;27;20416;-74
2021/11/18 05:20:13;;;;;;;79.75;48.08;;;-3.50;88.50;;;;;;5104443;27;20030;-73
2021/11/18 05:22:38;;;;;;;74.50;45.55;;;-3.40;89.50;;;;;;5120611;27;20480;-75
2021/11/18 05:25:06;;;;;;;78.30;48.33;;;-3.20;89.20;;;;;;5109534;27;20079;-73
2021/11/18 05:27:32;;;;;;;82.20;49.67;;;-2.90;88.70;;;;;;5122696;27;20028;-74
2021/11/18 05:29:57;;;;;;;94.43;55.35;;;-2.70;87.40;;;;;;5101745;28;20040;-76
2021/11/18 05:32:23;;;;;;;115.28;67.20;;;-2.50;86.20;;;;;;5117996;27;20103;-74
2021/11/18 05:34:49;;;;;;;107.72;59.17;;;-2.30;85.40;;;;;;5114232;28;20031;-74
2021/11/18 05:37:16;;;;;;;85.57;50.95;;;-2.10;83.90;;;;;;5096094;28;20453;-75
2021/11/18 05:39:42;;;;;;;82.78;49.45;;;-1.90;82.50;;;;;;5116577;28;20106;-75
2021/11/18 05:42:08;;;;;;;67.00;41.97;;;-1.70;81.90;;;;;;5102207;28;20066;-73
2021/11/18 05:44:34;;;;;;;75.05;45.63;;;-1.50;81.70;;;;;;5122920;27;20024;-75
2021/11/18 05:46:59;;;;;;;74.68;45.63;;;-1.20;80.50;;;;;;5122931;27;20362;-75
2021/11/18 05:49:25;;;;;;;64.05;40.80;;;-1.00;79.40;;;;;;5115940;28;20031;-76
2021/11/18 05:51:52;;;;;;;134.57;77.85;;;-0.80;79.50;;;;;;5120134;27;20081;-77
2021/11/18 05:54:20;;;;;;;161.52;94.65;;;-0.40;79.30;;;;;;5125500;27;20023;-71
2021/11/18 05:56:46;;;;;;;109.30;67.53;;;0.10;78.10;;;;;;5110331;27;20034;-70
2021/11/18 05:59:12;;;;;;;76.93;50.30;;;0.60;76.70;;;;;;5105582;28;20024;-72
2021/11/18 06:01:39;;;;;;;79.72;53.25;;;1.20;75.10;;;;;;5116767;27;20036;-69
2021/11/18 06:04:09;;;;;;;65.57;41.17;;;1.70;73.50;;;;;;5108353;27;20031;-70
2021/11/18 06:06:35;;;;;;;112.53;67.05;;;2.20;71.10;;;;;;5115396;27;20030;-72
2021/11/18 06:09:02;;;;;;;126.05;74.75;;;2.30;68.90;;;;;;5117504;27;20050;-71
2021/11/18 06:11:34;;;;;;;164.35;106.78;;;2.20;67.00;;;;;;5108537;27;20031;-70
2021/11/18 06:14:03;;;;;;;174.38;118.22;;;1.90;66.30;;;;;;5101950;27;20023;-71
2021/11/18 06:16:29;;;;;;;227.82;147.73;;;1.70;66.00;;;;;;5100744;27;20042;-73
2021/11/18 06:18:58;;;;;;;163.10;106.75;;;1.40;66.30;;;;;;5123284;27;20461;-72
2021/11/18 06:21:24;;;;;;;169.15;103.68;;;1.30;66.80;;;;;;5121084;27;20045;-71
2021/11/18 06:23:50;;;;;;;177.13;100.72;;;1.20;67.10;;;;;;5119337;27;20110;-71
2021/11/18 06:26:18;;;;;;;123.70;70.78;;;1.10;67.20;;;;;;5122495;27;20528;-74
2021/11/18 06:28:44;;;;;;;101.68;64.60;;;1.20;67.70;;;;;;5120683;27;20019;-75
2021/11/18 06:31:13;;;;;;;117.72;70.68;;;1.60;67.90;;;;;;5114704;27;20019;-75
2021/11/18 06:33:40;;;;;;;90.60;53.33;;;2.00;66.90;;;;;;5102110;28;20035;-75
2021/11/18 06:36:07;;;;;;;113.07;62.25;;;2.30;66.10;;;;;;5127192;27;20024;-73
2021/11/18 06:38:37;;;;;;;116.13;66.25;;;2.70;65.30;;;;;;5109609;28;20047;-74
2021/11/18 06:41:05;;;;;;;97.25;59.92;;;3.10;64.30;;;;;;5097572;28;20362;-74
2021/11/18 06:43:31;;;;;;;109.38;65.75;;;3.30;63.00;;;;;;5114501;27;20038;-77
2021/11/18 06:45:58;;;;;;;108.82;61.28;;;3.40;62.60;;;;;;5097087;28;20081;-75
2021/11/18 06:48:25;;;;;;;99.55;60.85;;;3.50;62.80;;;;;;5103656;27;20450;-76
2021/11/18 06:50:51;;;;;;;109.38;62.97;;;3.90;62.90;;;;;;5123116;27;20036;-75
2021/11/18 06:53:17;;;;;;;106.22;60.75;;;4.30;62.50;;;;;;5107899;27;20042;-74
2021/11/18 06:55:43;;;;;;;111.45;62.92;;;4.60;61.90;;;;;;5102879;27;20035;-74
2021/11/18 06:58:09;;;;;;;133.55;74.50;;;4.90;61.60;;;;;;5116310;27;20027;-74
2021/11/18 07:00:36;;;;;;;150.38;80.28;;;5.50;61.30;;;;;;5093227;28;20023;-75
2021/11/18 07:03:07;;;;;;;124.00;68.75;;;6.10;60.30;;;;;;5104826;27;20023;-74
2021/11/18 07:05:32;;;;;;;92.32;53.97;;;6.50;59.00;;;;;;5115860;27;20105;-74
2021/11/18 07:07:58;;;;;;;118.28;64.93;;;6.90;58.30;;;;;;5134686;27;20122;-74
2021/11/18 07:10:24;;;;;;;138.80;80.47;;;6.90;56.70;;;;;;5134597;27;20031;-73
2021/11/18 07:12:54;;;;;;;132.85;76.75;;;6.20;56.00;;;;;;5117034;27;20023;-73
2021/11/18 07:15:21;;;;;;;146.77;88.60;;;5.50;56.60;;;;;;5116580;27;20119;-74
2021/11/18 07:17:46;;;;;;;169.68;106.75;;;4.70;57.60;;;;;;5124325;27;20028;-74
2021/11/18 07:20:13;;;;;;;197.90;114.20;;;4.30;58.70;;;;;;5095554;28;20023;-74
2021/11/18 07:22:39;;;;;;;190.38;114.38;;;4.00;59.50;;;;;;5095851;28;20106;-74
2021/11/18 07:25:08;;;;;;;202.95;116.70;;;3.90;60.20;;;;;;5097271;28;20031;-73
2021/11/18 07:27:34;;;;;;;185.35;107.82;;;3.80;60.40;;;;;;5104948;28;20027;-75
2021/11/18 07:30:00;;;;;;;165.93;94.55;;;3.70;60.70;;;;;;5119575;28;20036;-73
2021/11/18 07:32:26;;;;;;;152.73;90.65;;;3.50;61.20;;;;;;5095818;28;20408;-74
2021/11/18 07:34:51;;;;;;;158.23;93.38;;;3.40;61.60;;;;;;5096013;28;20024;-74
2021/11/18 07:37:17;;;;;;;156.52;89.80;;;3.20;62.10;;;;;;5113775;28;20070;-74
2021/11/18 07:39:43;;;;;;;146.90;87.75;;;3.20;62.30;;;;;;5095688;28;20028;-73
2021/11/18 07:42:08;;;;;;;145.45;92.05;;;3.00;62.60;;;;;;5095757;28;20084;-73
2021/11/18 07:44:34;;;;;;;140.57;81.97;;;2.90;63.00;;;;;;5113858;28;20027;-75
2021/11/18 07:47:00;;;;;;;160.52;89.18;;;2.70;63.70;;;;;;5095735;28;20032;-73
2021/11/18 07:49:27;;;;;;;195.80;110.72;;;2.50;64.50;;;;;;5095493;28;20123;-73
2021/11/18 07:51:53;;;;;;;185.20;103.03;;;2.30;65.20;;;;;;5113761;28;20024;-73
2021/11/18 07:54:21;;;;;;;175.38;100.28;;;2.10;65.90;;;;;;5113810;28;20111;-73
2021/11/18 07:56:47;;;;;;;181.43;103.97;;;2.00;66.60;;;;;;5095653;28;20020;-73
2021/11/18 07:59:15;;;;;;;167.93;99.07;;;2.00;67.20;;;;;;5099357;28;20514;-73
2021/11/18 08:01:41;;;;;;;155.95;102.60;;;1.90;67.70;;;;;;5099902;28;20028;-73
2021/11/18 08:04:08;;;;;;;155.07;100.18;;;1.90;68.20;;;;;;5117976;28;20453;-74
2021/11/18 08:06:34;;;;;;;174.75;111.43;;;1.80;68.50;;;;;;5099238;28;20023;-74
2021/11/18 08:09:00;;;;;;;194.00;121.65;;;1.70;69.40;;;;;;5117751;28;20127;-74
2021/11/18 08:11:38;;;;;;;185.65;117.13;;;1.70;70.20;;;;;;5117788;28;20034;-74
2021/11/18 08:14:06;;;;;;;141.85;89.05;;;1.60;71.10;;;;;;5099672;28;20028;-74
2021/11/18 08:16:32;;;;;;;112.68;71.82;;;1.70;71.00;;;;;;5099772;28;20023;-75
2021/11/18 08:18:58;;;;;;;120.57;74.75;;;1.60;71.10;;;;;;5105468;28;20027;-73
2021/11/18 08:21:24;;;;;;;145.82;87.70;;;1.50;71.80;;;;;;5109249;28;20465;-74
2021/11/18 08:23:51;;;;;;;107.80;64.32;;;1.60;72.30;;;;;;5101002;28;20020;-74
2021/11/18 08:26:18;;;;;;;88.15;53.63;;;1.60;72.80;;;;;;5119252;28;20087;-74
2021/11/18 08:28:44;;;;;;;96.63;55.35;;;1.70;72.80;;;;;;5099262;28;20023;-74
2021/11/18 08:31:12;;;;;;;96.30;57.25;;;1.70;72.50;;;;;;5118351;28;20027;-74
2021/11/18 08:33:39;;;;;;;93.78;53.38;;;1.70;72.90;;;;;;5099091;28;20031;-75
2021/11/18 08:36:05;;;;;;;83.70;49.28;;;1.70;73.10;;;;;;5099048;28;20072;-74
2021/11/18 08:38:30;;;;;;;65.80;41.00;;;1.80;73.20;;;;;;5098906;28;20027;-75
2021/11/18 08:41:03;;;;;;;66.38;42.15;;;1.80;73.30;;;;;;5117698;27;20027;-74
2021/11/18 08:43:33;;;;;;;78.00;46.72;;;1.80;73.50;;;;;;5099202;28;20032;-73
2021/11/18 08:46:00;;;;;;;57.78;33.72;;;1.70;73.70;;;;;;5098915;28;20076;-72
2021/11/18 08:48:26;;;;;;;57.05;33.83;;;1.80;74.00;;;;;;5098814;28;20031;-76
2021/11/18 08:50:53;;;;;;;58.55;34.95;;;1.90;73.70;;;;;;5117288;28;20042;-73
2021/11/18 08:53:23;;;;;;;57.95;34.38;;;2.00;73.70;;;;;;5117377;28;20049;-75
2021/11/18 08:55:49;;;;;;;59.97;37.60;;;2.10;73.80;;;;;;5099381;28;20419;-73
2021/11/18 08:58:18;;;;;;;73.20;45.75;;;2.30;74.20;;;;;;5098945;28;20072;-73
2021/11/18 09:00:57;;;;;;;84.47;53.30;;;2.60;73.80;;;;;;5116815;28;20076;-73
2021/11/18 09:03:26;;;;;;;79.35;49.17;;;2.90;72.80;;;;;;5099192;28;20027;-73
2021/11/18 09:05:52;;;;;;;73.22;44.50;;;3.00;72.10;;;;;;5098035;28;20023;-74
2021/11/18 09:08:19;;;;;;;75.75;45.53;;;3.00;72.00;;;;;;5096496;28;20052;-74
2021/11/18 09:10:46;;;;;;;77.78;48.92;;;3.00;71.90;;;;;;5096763;28;20032;-73
2021/11/18 09:13:13;;;;;;;82.20;49.47;;;3.00;71.90;;;;;;5105960;28;20115;-74
2021/11/18 09:15:39;;;;;;;123.53;66.95;;;3.00;71.80;;;;;;5083245;28;20028;-74
2021/11/18 09:18:07;;;;;;;222.85;106.28;;;3.00;71.90;;;;;;5078183;28;20026;-74
2021/11/18 09:20:33;;;;;;;217.38;107.65;;;3.00;72.00;;;;;;5096175;28;20024;-73
2021/11/18 09:22:59;;;;;;;169.40;86.22;;;2.90;71.90;;;;;;5096053;28;20028;-74
2021/11/18 09:25:32;;;;;;;118.43;65.25;;;2.80;72.30;;;;;;5094662;28;20035;-74
2021/11/18 09:27:58;;;;;;;95.80;51.63;;;2.60;72.60;;;;;;5095922;28;20032;-74
2021/11/18 09:30:26;;;;;;;70.65;42.83;;;2.60;73.10;;;;;;5095933;28;20032;-74
2021/11/18 09:32:54;;;;;;;58.05;37.35;;;2.60;73.30;;;;;;5094619;28;20059;-74
2021/11/18 09:35:43;;;;;;;61.22;34.63;;;2.60;73.20;;;;;;5095670;28;20361;-74
2021/11/18 09:38:10;;;;;;;48.60;32.88;;;2.50;73.10;;;;;;5095810;28;20374;-74
2021/11/18 09:40:45;;;;;;;46.15;30.70;;;2.40;73.20;;;;;;5077946;28;20122;-74
2021/11/18 09:43:35;;;;;;;49.33;31.98;;;2.30;73.60;;;;;;5077519;28;20063;-74
2021/11/18 09:46:20;;;;;;;52.03;32.08;;;2.30;74.00;;;;;;5094314;28;20067;-76
2021/11/18 09:49:10;;;;;;;57.72;34.28;;;2.30;74.40;;;;;;5095299;28;20040;-74
2021/11/18 09:51:48;;;;;;;53.72;34.00;;;2.20;74.60;;;;;;5093703;28;20031;-73
2021/11/18 09:54:55;;;;;;;56.25;32.22;;;2.20;74.70;;;;;;5093959;28;20096;-73
2021/11/18 09:57:36;;;;;;;61.10;33.10;;;2.10;75.40;;;;;;5053455;28;20036;-73
2021/11/18 10:00:29;;;;;;;57.45;33.83;;;2.10;75.90;;;;;;5094960;28;20028;-74
2021/11/18 10:03:07;;;;;;;56.92;41.65;;;2.20;76.20;;;;;;5093867;28;20031;-75
2021/11/18 10:05:57;;;;;;;66.43;49.35;;;2.20;76.10;;;;;;5103400;28;20403;-74
2021/11/18 10:08:30;;;;;;;60.55;35.00;;;2.30;76.20;;;;;;5100305;28;20055;-75
2021/11/18 10:11:05;;;;;;;54.60;34.95;;;2.30;75.80;;;;;;5077135;28;20055;-75
2021/11/18 10:14:02;;;;;;;54.53;36.10;;;2.20;76.20;;;;;;5094651;28;20024;-74
2021/11/18 10:16:38;;;;;;;78.68;46.17;;;2.20;76.90;;;;;;5072203;28;20124;-74
2021/11/18 10:19:06;;;;;;;83.18;49.45;;;2.20;77.10;;;;;;5076877;28;20123;-74
2021/11/18 10:21:42;;;;;;;101.53;56.55;;;2.30;77.00;;;;;;5094425;28;20483;-74
2021/11/18 10:24:21;;;;;;;105.10;61.92;;;2.40;77.10;;;;;;5094442;28;20424;-74
2021/11/18 10:27:09;;;;;;;98.30;55.05;;;2.40;77.20;;;;;;5076957;28;20028;-74
2021/11/18 10:29:54;;;;;;;73.47;46.97;;;2.50;77.10;;;;;;5094215;28;20087;-73
2021/11/18 10:32:23;;;;;;;63.47;38.47;;;2.60;76.60;;;;;;5076253;28;20085;-74
2021/11/18 10:34:50;;;;;;;73.47;48.78;;;2.70;76.30;;;;;;5076418;28;20028;-74
2021/11/18 10:37:26;;;;;;;55.75;35.97;;;2.80;76.50;;;;;;5093412;28;20113;-73
2021/11/18 10:39:52;;;;;;;66.85;38.83;;;2.70;76.30;;;;;;5076176;28;20024;-74
2021/11/18 10:42:41;;;;;;;52.30;34.97;;;2.80;76.30;;;;;;5093025;28;20085;-74
2021/11/18 10:45:09;;;;;;;49.75;32.95;;;2.90;76.20;;;;;;5076103;28;20069;-74
2021/11/18 10:47:43;;;;;;;49.75;30.95;;;2.90;75.80;;;;;;5094597;28;20470;-74
2021/11/18 10:50:34;;;;;;;45.38;29.30;;;2.90;75.70;;;;;;5076456;28;20036;-74
2021/11/18 10:53:07;;;;;;;49.08;28.80;;;2.90;76.00;;;;;;5092890;28;20492;-74
2021/11/18 10:55:39;;;;;;;45.08;28.63;;;2.90;76.00;;;;;;5080226;28;20152;-74
2021/11/18 10:58:10;;;;;;;54.72;30.42;;;2.90;76.00;;;;;;5100443;28;20035;-75
2021/11/18 11:00:41;;;;;;;46.70;29.88;;;2.90;76.10;;;;;;5085834;28;20028;-74
2021/11/18 11:03:26;;;;;;;49.78;30.13;;;2.90;76.10;;;;;;5096086;28;20020;-73
2021/11/18 11:06:13;;;;;;;41.67;28.77;;;2.90;76.30;;;;;;5095817;28;20032;-73
2021/11/18 11:08:41;;;;;;;44.08;27.30;;;2.90;76.30;;;;;;5092690;28;20055;-74
2021/11/18 11:11:34;;;;;;;46.83;29.50;;;2.90;76.40;;;;;;5094209;28;20118;-73
2021/11/18 11:14:29;;;;;;;54.70;37.85;;;3.00;76.40;;;;;;5092496;28;20398;-73
2021/11/18 11:17:12;;;;;;;52.60;35.83;;;2.90;76.30;;;;;;5093856;28;20024;-75
2021/11/18 11:20:01;;;;;;;58.60;40.65;;;2.90;77.20;;;;;;5092798;28;20496;-73
2021/11/18 11:22:49;;;;;;;58.72;41.75;;;3.00;76.40;;;;;;5066238;28;20493;-74
2021/11/18 11:25:24;;;;;;;58.67;37.47;;;3.00;76.60;;;;;;5093835;28;20099;-74
2021/11/18 11:28:10;;;;;;;59.72;38.17;;;3.00;76.90;;;;;;5093995;28;20028;-74
2021/11/18 11:31:27;;;;;;;45.30;31.08;;;3.00;77.20;;;;;;5092322;28;20050;-73
2021/11/18 11:34:02;;;;;;;44.13;31.15;;;3.00;77.30;;;;;;5049601;28;20032;-73
2021/11/18 11:36:53;;;;;;;47.97;31.23;;;3.00;77.40;;;;;;5093863;28;20052;-74
2021/11/18 11:39:51;;;;;;;60.53;34.63;;;3.10;77.40;;;;;;5093916;28;20024;-74
2021/11/18 11:42:56;;;;;;;82.30;48.65;;;3.10;77.40;;;;;;5074966;28;20040;-74
2021/11/18 11:45:52;;;;;;;89.68;52.08;;;3.10;77.50;;;;;;5075392;28;20366;-74
2021/11/18 11:48:36;;;;;;;89.68;54.70;;;3.10;77.80;;;;;;5076066;28;20036;-74
2021/11/18 11:51:37;;;;;;;96.38;57.95;;;3.30;77.60;;;;;;5095880;28;20032;-74
2021/11/18 11:54:40;;;;;;;93.85;56.75;;;3.30;77.20;;;;;;5100197;28;20028;-73
2021/11/18 11:57:29;;;;;;;107.22;60.40;;;3.30;77.10;;;;;;5094085;28;20032;-75
2021/11/18 12:00:14;;;;;;;105.38;63.47;;;3.30;77.20;;;;;;5093320;28;20097;-73
2021/11/18 12:02:43;;;;;;;119.28;68.53;;;3.30;77.10;;;;;;5093966;28;20020;-74
2021/11/18 12:05:28;;;;;;;124.28;71.95;;;3.30;77.00;;;;;;5075092;28;20067;-74
2021/11/18 12:08:20;;;;;;;116.22;64.68;;;3.20;77.60;;;;;;5075383;28;20044;-75
2021/11/18 12:10:54;;;;;;;116.00;64.10;;;3.20;77.50;;;;;;5075707;28;20043;-74
2021/11/18 12:13:27;;;;;;;121.93;67.80;;;3.20;77.70;;;;;;5075330;28;20081;-74
2021/11/18 12:16:13;;;;;;;103.82;54.72;;;3.10;78.10;;;;;;5093193;28;20101;-73
2021/11/18 12:18:39;;;;;;;128.20;74.63;;;3.00;78.60;;;;;;5082507;28;20044;-74
2021/11/18 12:21:04;;;;;;;137.55;85.88;;;3.00;78.90;;;;;;5093332;28;20523;-75
2021/11/18 12:24:02;;;;;;;118.00;69.38;;;3.00;79.40;;;;;;5075343;28;20024;-73
2021/11/18 12:26:53;;;;;;;90.75;56.17;;;3.10;79.70;;;;;;5093111;28;20028;-74
2021/11/18 12:29:27;;;;;;;83.03;47.90;;;3.20;79.40;;;;;;5063785;28;20055;-74
2021/11/18 12:32:24;;;;;;;73.53;46.83;;;3.30;79.40;;;;;;5093253;28;20034;-73
2021/11/18 12:35:08;;;;;;;58.70;37.60;;;3.30;79.20;;;;;;5084550;28;20032;-73
2021/11/18 12:37:58;;;;;;;55.40;32.60;;;3.30;79.20;;;;;;5093351;28;20370;-73
2021/11/18 12:40:54;;;;;;;48.10;31.85;;;3.30;79.00;;;;;;5075386;28;20428;-73
2021/11/18 12:43:56;;;;;;;51.38;31.17;;;3.30;79.00;;;;;;5100479;28;20032;-73
2021/11/18 12:46:31;;;;;;;48.42;29.40;;;3.20;79.20;;;;;;5107759;28;20431;-73